Buckley, WA (98321)

11:57 AM PDT on septembrie 26, 2016 (GMT -0700)
South Prairie, WA | | Change Station

Elev 433 ft 47.14 °N, 122.09 °W | Updated 5 seconds ago

Clear
Cer senin
72.7 °F
Feels Like 77 °F
N
0.9
Vânt variabil Vânt from SSE
Gusts 2.5 mph

astăzi
High -- | Low -- °F
--% Chance of Precip.
Ieri
High -- | Low -- °F
Precip. -- inch
Presiunea 30.11 inch
Vizibilitatea 10.0 mile
Nori Cer senin
Indicele de căldură 77 °F
Punctul de rouă 57 °F
Umiditatea 57%
Precipitaţii 0.00 inch
Adâncimea zăpezii Not available.
7:01 AM 6:56 PM
Semilună în descreştere, 17% visible
METAR KTCM 261758Z AUTO 32005KT 10SM CLR 18/14 A3010 RMK AO2 SLP196 T01840135 10184 20078 57008 $
Presiunea 30.11 inch
Vizibilitatea 10.0 mile
Nori Cer senin
Indicele de căldură 77 °F
Punctul de rouă 57 °F
Umiditatea 57%
Precipitaţii 0.00 inch
Adâncimea zăpezii Not available.
7:01 AM 6:56 PM
Semilună în descreştere, 17% visible
METAR KTCM 261758Z AUTO 32005KT 10SM CLR 18/14 A3010 RMK AO2 SLP196 T01840135 10184 20078 57008 $

10-Day Weather Forecast

Almanac

Astronomie

Sep. 26, 2016 Răsărit Apus
Timpul Actual
Crepusculul Civil
Crepusculul nautic
Răsărit Astronomic
Luna
Durata zilei lumină
Lungimea zilei
Tomorrow will be .
, % of the Moon is Illuminated

Extremele de azi

State Highs State Lows

Community

WunderPhotos

Upload Photos

1,941,951 photos uploaded!

WunderBlog® & News

Nearby

Calitatea aerului

  Calitatea aerului Index de calitate a aerului Poluat
Not available.

Adâncimea zapezii

Station Depth Elevation

Earthquake Activity

Oraş Distance Mag. Time & Date
Minimum magnitude displayed is 2.5.

Coastal Water Temperatures

Locul Temperatura

Stations

Nearby Weather Stations

Locaţia staţiei Temp Vânt rece Punctul de rouă Umiditatea Vânt Precip. Elev Actualizare Type
                   

Watches & Warnings

There are currently no watches in effect.